sensor_id;sensor_type;location;lat;lon;timestamp;P1;durP1;ratioP1;P2;durP2;ratioP2
9142;SDS011;54072;47.410;8.446;2023-04-06T00:01:29;6.50;;;5.13;;
9142;SDS011;54072;47.410;8.446;2023-04-06T00:03:56;6.27;;;5.63;;
9142;SDS011;54072;47.410;8.446;2023-04-06T00:06:24;7.87;;;6.43;;
9142;SDS011;54072;47.410;8.446;2023-04-06T00:08:53;6.83;;;5.83;;
9142;SDS011;54072;47.410;8.446;2023-04-06T00:11:20;7.80;;;6.20;;
9142;SDS011;54072;47.410;8.446;2023-04-06T00:13:48;9.30;;;6.30;;
9142;SDS011;54072;47.410;8.446;2023-04-06T00:16:16;6.63;;;5.73;;
9142;SDS011;54072;47.410;8.446;2023-04-06T00:18:45;6.53;;;5.93;;
9142;SDS011;54072;47.410;8.446;2023-04-06T00:21:13;7.70;;;5.63;;
9142;SDS011;54072;47.410;8.446;2023-04-06T00:23:41;7.80;;;5.80;;
9142;SDS011;54072;47.410;8.446;2023-04-06T00:26:09;9.23;;;6.23;;
9142;SDS011;54072;47.410;8.446;2023-04-06T00:28:37;6.00;;;5.23;;
9142;SDS011;54072;47.410;8.446;2023-04-06T00:31:04;8.53;;;5.73;;
9142;SDS011;54072;47.410;8.446;2023-04-06T00:33:32;7.63;;;5.70;;
9142;SDS011;54072;47.410;8.446;2023-04-06T00:36:01;6.10;;;5.47;;
9142;SDS011;54072;47.410;8.446;2023-04-06T00:38:29;6.07;;;5.47;;
9142;SDS011;54072;47.410;8.446;2023-04-06T00:40:56;7.23;;;6.10;;
9142;SDS011;54072;47.410;8.446;2023-04-06T00:43:24;7.60;;;6.00;;
9142;SDS011;54072;47.410;8.446;2023-04-06T00:45:52;8.00;;;5.17;;
9142;SDS011;54072;47.410;8.446;2023-04-06T00:48:20;7.93;;;5.53;;
9142;SDS011;54072;47.410;8.446;2023-04-06T00:50:48;7.83;;;5.50;;
9142;SDS011;54072;47.410;8.446;2023-04-06T00:53:17;8.23;;;5.70;;
9142;SDS011;54072;47.410;8.446;2023-04-06T00:55:45;9.90;;;5.87;;
9142;SDS011;54072;47.410;8.446;2023-04-06T00:58:12;8.37;;;6.17;;
9142;SDS011;54072;47.410;8.446;2023-04-06T01:00:41;6.70;;;5.67;;
9142;SDS011;54072;47.410;8.446;2023-04-06T01:03:09;7.87;;;6.10;;
9142;SDS011;54072;47.410;8.446;2023-04-06T01:05:37;9.03;;;5.73;;
9142;SDS011;54072;47.410;8.446;2023-04-06T01:08:06;8.07;;;6.03;;
9142;SDS011;54072;47.410;8.446;2023-04-06T01:10:36;7.00;;;5.97;;
9142;SDS011;54072;47.410;8.446;2023-04-06T01:13:04;7.50;;;5.77;;
9142;SDS011;54072;47.410;8.446;2023-04-06T01:15:31;6.73;;;5.70;;
9142;SDS011;54072;47.410;8.446;2023-04-06T01:17:59;9.43;;;6.30;;
9142;SDS011;54072;47.410;8.446;2023-04-06T01:20:27;6.73;;;5.43;;
9142;SDS011;54072;47.410;8.446;2023-04-06T01:22:58;8.27;;;6.07;;
9142;SDS011;54072;47.410;8.446;2023-04-06T01:25:25;8.67;;;6.33;;
9142;SDS011;54072;47.410;8.446;2023-04-06T01:27:53;7.23;;;5.90;;
9142;SDS011;54072;47.410;8.446;2023-04-06T01:30:21;8.30;;;6.40;;
9142;SDS011;54072;47.410;8.446;2023-04-06T01:32:50;7.57;;;5.93;;
9142;SDS011;54072;47.410;8.446;2023-04-06T01:35:17;8.13;;;6.43;;
9142;SDS011;54072;47.410;8.446;2023-04-06T01:37:46;9.07;;;6.37;;
9142;SDS011;54072;47.410;8.446;2023-04-06T01:40:15;7.97;;;6.00;;
9142;SDS011;54072;47.410;8.446;2023-04-06T01:42:43;9.67;;;6.50;;
9142;SDS011;54072;47.410;8.446;2023-04-06T01:45:10;7.80;;;6.57;;
9142;SDS011;54072;47.410;8.446;2023-04-06T01:47:38;9.37;;;6.60;;
9142;SDS011;54072;47.410;8.446;2023-04-06T01:50:06;9.73;;;5.53;;
9142;SDS011;54072;47.410;8.446;2023-04-06T01:52:37;9.00;;;6.37;;
9142;SDS011;54072;47.410;8.446;2023-04-06T01:55:05;8.10;;;6.00;;
9142;SDS011;54072;47.410;8.446;2023-04-06T01:57:34;8.07;;;6.23;;
9142;SDS011;54072;47.410;8.446;2023-04-06T02:00:02;11.47;;;6.20;;
9142;SDS011;54072;47.410;8.446;2023-04-06T02:02:30;8.57;;;6.23;;
9142;SDS011;54072;47.410;8.446;2023-04-06T02:04:57;12.67;;;5.83;;
9142;SDS011;54072;47.410;8.446;2023-04-06T02:07:25;7.73;;;5.80;;
9142;SDS011;54072;47.410;8.446;2023-04-06T02:09:53;9.47;;;5.97;;
9142;SDS011;54072;47.410;8.446;2023-04-06T02:12:22;11.67;;;6.60;;
9142;SDS011;54072;47.410;8.446;2023-04-06T02:14:51;9.77;;;5.83;;
9142;SDS011;54072;47.410;8.446;2023-04-06T02:17:19;8.77;;;5.97;;
9142;SDS011;54072;47.410;8.446;2023-04-06T02:19:46;9.27;;;6.13;;
9142;SDS011;54072;47.410;8.446;2023-04-06T02:22:14;7.77;;;6.23;;
9142;SDS011;54072;47.410;8.446;2023-04-06T02:24:42;7.30;;;6.03;;
9142;SDS011;54072;47.410;8.446;2023-04-06T02:27:09;8.37;;;6.60;;
9142;SDS011;54072;47.410;8.446;2023-04-06T02:29:37;9.03;;;6.20;;
9142;SDS011;54072;47.410;8.446;2023-04-06T02:32:06;8.67;;;6.40;;
9142;SDS011;54072;47.410;8.446;2023-04-06T02:34:34;8.60;;;6.37;;
9142;SDS011;54072;47.410;8.446;2023-04-06T02:37:02;8.40;;;6.73;;
9142;SDS011;54072;47.410;8.446;2023-04-06T02:39:29;7.30;;;6.20;;
9142;SDS011;54072;47.410;8.446;2023-04-06T02:41:57;6.93;;;6.03;;
9142;SDS011;54072;47.410;8.446;2023-04-06T02:44:25;7.00;;;5.67;;
9142;SDS011;54072;47.410;8.446;2023-04-06T02:46:52;8.13;;;6.10;;
9142;SDS011;54072;47.410;8.446;2023-04-06T02:49:21;10.23;;;6.40;;
9142;SDS011;54072;47.410;8.446;2023-04-06T02:51:49;6.87;;;5.87;;
9142;SDS011;54072;47.410;8.446;2023-04-06T02:54:17;8.13;;;6.20;;
9142;SDS011;54072;47.410;8.446;2023-04-06T02:56:44;9.07;;;5.80;;
9142;SDS011;54072;47.410;8.446;2023-04-06T02:59:12;9.17;;;6.60;;
9142;SDS011;54072;47.410;8.446;2023-04-06T03:01:40;8.23;;;6.13;;
9142;SDS011;54072;47.410;8.446;2023-04-06T03:04:07;9.87;;;6.07;;
9142;SDS011;54072;47.410;8.446;2023-04-06T03:06:37;6.90;;;5.73;;
9142;SDS011;54072;47.410;8.446;2023-04-06T03:09:05;10.57;;;6.30;;
9142;SDS011;54072;47.410;8.446;2023-04-06T03:11:34;7.57;;;6.40;;
9142;SDS011;54072;47.410;8.446;2023-04-06T03:14:02;8.43;;;6.17;;
9142;SDS011;54072;47.410;8.446;2023-04-06T03:16:29;7.67;;;6.57;;
9142;SDS011;54072;47.410;8.446;2023-04-06T03:18:57;9.93;;;6.13;;
9142;SDS011;54072;47.410;8.446;2023-04-06T03:21:25;8.07;;;6.50;;
9142;SDS011;54072;47.410;8.446;2023-04-06T03:23:54;6.87;;;5.83;;
9142;SDS011;54072;47.410;8.446;2023-04-06T03:26:21;8.87;;;6.30;;
9142;SDS011;54072;47.410;8.446;2023-04-06T03:28:49;9.07;;;6.40;;
9142;SDS011;54072;47.410;8.446;2023-04-06T03:31:17;9.33;;;6.27;;
9142;SDS011;54072;47.410;8.446;2023-04-06T03:33:44;8.10;;;6.33;;
9142;SDS011;54072;47.410;8.446;2023-04-06T03:36:12;10.17;;;5.97;;
9142;SDS011;54072;47.410;8.446;2023-04-06T03:38:40;8.43;;;6.33;;
9142;SDS011;54072;47.410;8.446;2023-04-06T03:41:09;9.00;;;6.30;;
9142;SDS011;54072;47.410;8.446;2023-04-06T03:43:37;7.60;;;6.43;;
9142;SDS011;54072;47.410;8.446;2023-04-06T03:46:04;8.27;;;6.13;;
9142;SDS011;54072;47.410;8.446;2023-04-06T03:48:32;9.53;;;6.60;;
9142;SDS011;54072;47.410;8.446;2023-04-06T03:51:00;8.30;;;6.20;;
9142;SDS011;54072;47.410;8.446;2023-04-06T03:53:27;7.63;;;6.07;;
9142;SDS011;54072;47.410;8.446;2023-04-06T03:55:55;7.83;;;6.07;;
9142;SDS011;54072;47.410;8.446;2023-04-06T03:58:24;10.13;;;6.87;;
9142;SDS011;54072;47.410;8.446;2023-04-06T04:00:52;9.60;;;7.13;;
9142;SDS011;54072;47.410;8.446;2023-04-06T04:03:19;9.40;;;6.83;;
9142;SDS011;54072;47.410;8.446;2023-04-06T04:05:49;9.00;;;6.67;;
9142;SDS011;54072;47.410;8.446;2023-04-06T04:08:17;11.03;;;6.50;;
9142;SDS011;54072;47.410;8.446;2023-04-06T04:10:44;9.63;;;6.40;;
9142;SDS011;54072;47.410;8.446;2023-04-06T04:13:12;9.03;;;6.60;;
9142;SDS011;54072;47.410;8.446;2023-04-06T04:15:41;9.13;;;6.43;;
9142;SDS011;54072;47.410;8.446;2023-04-06T04:18:09;9.47;;;6.63;;
9142;SDS011;54072;47.410;8.446;2023-04-06T04:20:37;9.53;;;6.57;;
9142;SDS011;54072;47.410;8.446;2023-04-06T04:23:05;8.00;;;6.10;;
9142;SDS011;54072;47.410;8.446;2023-04-06T04:25:32;9.87;;;6.70;;
9142;SDS011;54072;47.410;8.446;2023-04-06T04:28:00;8.83;;;7.07;;
9142;SDS011;54072;47.410;8.446;2023-04-06T04:30:28;9.87;;;6.70;;
9142;SDS011;54072;47.410;8.446;2023-04-06T04:32:57;8.63;;;6.83;;
9142;SDS011;54072;47.410;8.446;2023-04-06T04:35:26;10.37;;;7.33;;
9142;SDS011;54072;47.410;8.446;2023-04-06T04:37:54;9.43;;;7.43;;
9142;SDS011;54072;47.410;8.446;2023-04-06T04:40:21;13.83;;;6.97;;
9142;SDS011;54072;47.410;8.446;2023-04-06T04:42:49;8.53;;;6.40;;
9142;SDS011;54072;47.410;8.446;2023-04-06T04:45:18;9.50;;;7.03;;
9142;SDS011;54072;47.410;8.446;2023-04-06T04:47:45;9.83;;;6.80;;
9142;SDS011;54072;47.410;8.446;2023-04-06T04:50:15;10.97;;;6.90;;
9142;SDS011;54072;47.410;8.446;2023-04-06T04:52:42;9.07;;;6.60;;
9142;SDS011;54072;47.410;8.446;2023-04-06T04:55:10;12.03;;;7.23;;
9142;SDS011;54072;47.410;8.446;2023-04-06T04:57:38;9.97;;;7.23;;
9142;SDS011;54072;47.410;8.446;2023-04-06T05:00:06;15.67;;;7.23;;
9142;SDS011;54072;47.410;8.446;2023-04-06T05:02:35;9.20;;;6.90;;
9142;SDS011;54072;47.410;8.446;2023-04-06T05:05:02;11.90;;;7.33;;
9142;SDS011;54072;47.410;8.446;2023-04-06T05:07:32;9.30;;;6.90;;
9142;SDS011;54072;47.410;8.446;2023-04-06T05:10:00;11.83;;;7.00;;
9142;SDS011;54072;47.410;8.446;2023-04-06T05:12:28;11.90;;;7.37;;
9142;SDS011;54072;47.410;8.446;2023-04-06T05:14:56;9.93;;;6.93;;
9142;SDS011;54072;47.410;8.446;2023-04-06T05:17:23;10.93;;;7.03;;
9142;SDS011;54072;47.410;8.446;2023-04-06T05:19:51;13.90;;;7.53;;
9142;SDS011;54072;47.410;8.446;2023-04-06T05:22:19;14.50;;;7.87;;
9142;SDS011;54072;47.410;8.446;2023-04-06T05:24:48;12.67;;;8.30;;
9142;SDS011;54072;47.410;8.446;2023-04-06T05:27:16;12.53;;;7.67;;
9142;SDS011;54072;47.410;8.446;2023-04-06T05:29:44;10.00;;;7.73;;
9142;SDS011;54072;47.410;8.446;2023-04-06T05:32:12;14.80;;;7.43;;
9142;SDS011;54072;47.410;8.446;2023-04-06T05:34:39;16.90;;;8.07;;
9142;SDS011;54072;47.410;8.446;2023-04-06T05:37:07;14.13;;;7.97;;
9142;SDS011;54072;47.410;8.446;2023-04-06T05:39:35;12.03;;;7.80;;
9142;SDS011;54072;47.410;8.446;2023-04-06T05:42:05;12.73;;;7.50;;
9142;SDS011;54072;47.410;8.446;2023-04-06T05:44:33;12.03;;;7.30;;
9142;SDS011;54072;47.410;8.446;2023-04-06T05:47:01;11.53;;;7.30;;
9142;SDS011;54072;47.410;8.446;2023-04-06T05:49:29;14.33;;;7.83;;
9142;SDS011;54072;47.410;8.446;2023-04-06T05:51:57;9.20;;;7.10;;
9142;SDS011;54072;47.410;8.446;2023-04-06T05:54:24;11.23;;;6.50;;
9142;SDS011;54072;47.410;8.446;2023-04-06T05:56:52;9.20;;;6.67;;
9142;SDS011;54072;47.410;8.446;2023-04-06T05:59:21;13.17;;;6.73;;
9142;SDS011;54072;47.410;8.446;2023-04-06T06:01:49;12.83;;;6.80;;
9142;SDS011;54072;47.410;8.446;2023-04-06T06:04:17;17.77;;;6.60;;
9142;SDS011;54072;47.410;8.446;2023-04-06T06:06:45;13.20;;;6.57;;
9142;SDS011;54072;47.410;8.446;2023-04-06T06:09:13;14.27;;;6.63;;
9142;SDS011;54072;47.410;8.446;2023-04-06T06:11:41;10.00;;;6.73;;
9142;SDS011;54072;47.410;8.446;2023-04-06T06:14:08;11.10;;;6.67;;
9142;SDS011;54072;47.410;8.446;2023-04-06T06:16:37;10.73;;;6.90;;
9142;SDS011;54072;47.410;8.446;2023-04-06T06:19:05;14.07;;;7.30;;
9142;SDS011;54072;47.410;8.446;2023-04-06T06:21:33;8.57;;;6.43;;
9142;SDS011;54072;47.410;8.446;2023-04-06T06:24:01;9.90;;;6.97;;
9142;SDS011;54072;47.410;8.446;2023-04-06T06:26:28;7.73;;;6.50;;
9142;SDS011;54072;47.410;8.446;2023-04-06T06:28:56;10.57;;;6.47;;
9142;SDS011;54072;47.410;8.446;2023-04-06T06:31:24;11.37;;;7.40;;
9142;SDS011;54072;47.410;8.446;2023-04-06T06:33:53;10.87;;;7.50;;
9142;SDS011;54072;47.410;8.446;2023-04-06T06:36:21;12.43;;;7.10;;
9142;SDS011;54072;47.410;8.446;2023-04-06T06:38:48;10.43;;;7.67;;
9142;SDS011;54072;47.410;8.446;2023-04-06T06:41:16;12.83;;;7.97;;
9142;SDS011;54072;47.410;8.446;2023-04-06T06:43:44;14.73;;;7.73;;
9142;SDS011;54072;47.410;8.446;2023-04-06T06:46:11;17.53;;;7.03;;
9142;SDS011;54072;47.410;8.446;2023-04-06T06:48:39;14.77;;;7.73;;
9142;SDS011;54072;47.410;8.446;2023-04-06T06:51:08;12.67;;;7.73;;
9142;SDS011;54072;47.410;8.446;2023-04-06T06:53:37;11.97;;;8.03;;
9142;SDS011;54072;47.410;8.446;2023-04-06T06:56:05;20.30;;;8.13;;
9142;SDS011;54072;47.410;8.446;2023-04-06T06:58:33;24.77;;;8.37;;
9142;SDS011;54072;47.410;8.446;2023-04-06T07:01:01;12.30;;;7.77;;
9142;SDS011;54072;47.410;8.446;2023-04-06T07:03:29;10.60;;;7.47;;
9142;SDS011;54072;47.410;8.446;2023-04-06T07:05:57;13.70;;;8.20;;
9142;SDS011;54072;47.410;8.446;2023-04-06T07:08:26;9.37;;;7.53;;
9142;SDS011;54072;47.410;8.446;2023-04-06T07:10:53;9.57;;;6.93;;
9142;SDS011;54072;47.410;8.446;2023-04-06T07:13:22;9.67;;;6.90;;
9142;SDS011;54072;47.410;8.446;2023-04-06T07:15:50;10.90;;;7.43;;
9142;SDS011;54072;47.410;8.446;2023-04-06T07:18:19;10.40;;;7.63;;
9142;SDS011;54072;47.410;8.446;2023-04-06T07:20:47;10.97;;;7.70;;
9142;SDS011;54072;47.410;8.446;2023-04-06T07:23:14;10.50;;;7.27;;
9142;SDS011;54072;47.410;8.446;2023-04-06T07:25:43;7.90;;;6.47;;
9142;SDS011;54072;47.410;8.446;2023-04-06T07:28:11;13.50;;;6.73;;
9142;SDS011;54072;47.410;8.446;2023-04-06T07:30:39;11.47;;;6.90;;
9142;SDS011;54072;47.410;8.446;2023-04-06T07:33:07;8.80;;;6.40;;
9142;SDS011;54072;47.410;8.446;2023-04-06T07:35:35;9.43;;;6.73;;
9142;SDS011;54072;47.410;8.446;2023-04-06T07:38:02;10.70;;;7.13;;
9142;SDS011;54072;47.410;8.446;2023-04-06T07:40:30;7.87;;;6.70;;
9142;SDS011;54072;47.410;8.446;2023-04-06T07:43:00;9.77;;;6.77;;
9142;SDS011;54072;47.410;8.446;2023-04-06T07:45:28;8.30;;;6.53;;
9142;SDS011;54072;47.410;8.446;2023-04-06T07:47:56;8.97;;;7.00;;
9142;SDS011;54072;47.410;8.446;2023-04-06T07:50:23;10.07;;;6.93;;
9142;SDS011;54072;47.410;8.446;2023-04-06T07:52:51;9.07;;;7.00;;
9142;SDS011;54072;47.410;8.446;2023-04-06T07:55:19;9.83;;;6.97;;
9142;SDS011;54072;47.410;8.446;2023-04-06T07:57:47;9.90;;;6.47;;
9142;SDS011;54072;47.410;8.446;2023-04-06T08:00:16;8.87;;;6.67;;
9142;SDS011;54072;47.410;8.446;2023-04-06T08:02:44;8.43;;;6.73;;
9142;SDS011;54072;47.410;8.446;2023-04-06T08:05:12;9.73;;;6.87;;
9142;SDS011;54072;47.410;8.446;2023-04-06T08:07:40;11.23;;;6.47;;
9142;SDS011;54072;47.410;8.446;2023-04-06T08:10:08;9.67;;;6.60;;
9142;SDS011;54072;47.410;8.446;2023-04-06T08:12:37;10.07;;;7.07;;
9142;SDS011;54072;47.410;8.446;2023-04-06T08:15:05;8.17;;;6.23;;
9142;SDS011;54072;47.410;8.446;2023-04-06T08:17:34;10.80;;;6.67;;
9142;SDS011;54072;47.410;8.446;2023-04-06T08:20:02;8.17;;;6.40;;
9142;SDS011;54072;47.410;8.446;2023-04-06T08:22:30;8.50;;;6.13;;
9142;SDS011;54072;47.410;8.446;2023-04-06T08:24:58;7.17;;;6.47;;
9142;SDS011;54072;47.410;8.446;2023-04-06T08:27:26;8.03;;;6.10;;
9142;SDS011;54072;47.410;8.446;2023-04-06T08:29:53;10.50;;;6.90;;
9142;SDS011;54072;47.410;8.446;2023-04-06T08:32:21;13.07;;;6.40;;
9142;SDS011;54072;47.410;8.446;2023-04-06T08:34:52;8.83;;;6.50;;
9142;SDS011;54072;47.410;8.446;2023-04-06T08:37:21;9.67;;;6.60;;
9142;SDS011;54072;47.410;8.446;2023-04-06T08:39:49;8.53;;;6.47;;
9142;SDS011;54072;47.410;8.446;2023-04-06T08:42:18;7.37;;;6.27;;
9142;SDS011;54072;47.410;8.446;2023-04-06T08:44:47;6.87;;;5.97;;
9142;SDS011;54072;47.410;8.446;2023-04-06T08:47:17;7.27;;;6.17;;
9142;SDS011;54072;47.410;8.446;2023-04-06T08:49:46;8.53;;;6.13;;
9142;SDS011;54072;47.410;8.446;2023-04-06T08:52:15;7.07;;;5.80;;
9142;SDS011;54072;47.410;8.446;2023-04-06T08:54:45;9.10;;;6.20;;
9142;SDS011;54072;47.410;8.446;2023-04-06T08:57:13;6.90;;;6.20;;
9142;SDS011;54072;47.410;8.446;2023-04-06T08:59:41;8.13;;;6.60;;
9142;SDS011;54072;47.410;8.446;2023-04-06T09:02:10;7.77;;;6.57;;
9142;SDS011;54072;47.410;8.446;2023-04-06T09:04:41;10.43;;;6.60;;
9142;SDS011;54072;47.410;8.446;2023-04-06T09:07:09;9.13;;;6.27;;
9142;SDS011;54072;47.410;8.446;2023-04-06T09:09:39;9.57;;;6.30;;
9142;SDS011;54072;47.410;8.446;2023-04-06T09:12:09;8.43;;;6.30;;
9142;SDS011;54072;47.410;8.446;2023-04-06T09:14:38;6.40;;;5.80;;
9142;SDS011;54072;47.410;8.446;2023-04-06T09:17:06;7.77;;;6.20;;
9142;SDS011;54072;47.410;8.446;2023-04-06T09:19:44;8.63;;;5.73;;
9142;SDS011;54072;47.410;8.446;2023-04-06T09:22:12;7.47;;;5.80;;
9142;SDS011;54072;47.410;8.446;2023-04-06T09:24:43;8.30;;;6.23;;
9142;SDS011;54072;47.410;8.446;2023-04-06T09:27:12;8.50;;;6.00;;
9142;SDS011;54072;47.410;8.446;2023-04-06T09:29:41;8.10;;;6.17;;
9142;SDS011;54072;47.410;8.446;2023-04-06T09:32:09;7.70;;;5.40;;
9142;SDS011;54072;47.410;8.446;2023-04-06T09:34:37;7.10;;;5.47;;
9142;SDS011;54072;47.410;8.446;2023-04-06T09:37:12;6.47;;;5.70;;
9142;SDS011;54072;47.410;8.446;2023-04-06T09:39:42;6.53;;;5.07;;
9142;SDS011;54072;47.410;8.446;2023-04-06T09:42:11;6.37;;;5.40;;
9142;SDS011;54072;47.410;8.446;2023-04-06T09:44:38;7.03;;;5.60;;
9142;SDS011;54072;47.410;8.446;2023-04-06T09:47:06;6.10;;;5.30;;
9142;SDS011;54072;47.410;8.446;2023-04-06T09:49:35;7.20;;;5.87;;
9142;SDS011;54072;47.410;8.446;2023-04-06T09:52:03;6.13;;;5.40;;
9142;SDS011;54072;47.410;8.446;2023-04-06T09:54:34;6.50;;;5.20;;
9142;SDS011;54072;47.410;8.446;2023-04-06T09:57:07;6.33;;;5.67;;
9142;SDS011;54072;47.410;8.446;2023-04-06T09:59:37;7.80;;;5.83;;
9142;SDS011;54072;47.410;8.446;2023-04-06T10:02:08;11.60;;;5.07;;
9142;SDS011;54072;47.410;8.446;2023-04-06T10:04:43;7.33;;;5.50;;
9142;SDS011;54072;47.410;8.446;2023-04-06T10:07:11;7.40;;;5.70;;
9142;SDS011;54072;47.410;8.446;2023-04-06T10:09:39;8.30;;;5.33;;
9142;SDS011;54072;47.410;8.446;2023-04-06T10:12:08;7.57;;;5.73;;
9142;SDS011;54072;47.410;8.446;2023-04-06T10:14:36;7.17;;;4.70;;
9142;SDS011;54072;47.410;8.446;2023-04-06T10:17:04;11.27;;;4.73;;
9142;SDS011;54072;47.410;8.446;2023-04-06T10:19:36;6.30;;;4.30;;
9142;SDS011;54072;47.410;8.446;2023-04-06T10:22:07;5.37;;;4.50;;
9142;SDS011;54072;47.410;8.446;2023-04-06T10:24:36;6.47;;;5.10;;
9142;SDS011;54072;47.410;8.446;2023-04-06T10:27:04;7.43;;;4.90;;
9142;SDS011;54072;47.410;8.446;2023-04-06T10:29:43;5.20;;;4.70;;
9142;SDS011;54072;47.410;8.446;2023-04-06T10:34:40;5.40;;;4.30;;
9142;SDS011;54072;47.410;8.446;2023-04-06T10:37:11;6.27;;;5.17;;
9142;SDS011;54072;47.410;8.446;2023-04-06T10:39:46;7.37;;;5.10;;
9142;SDS011;54072;47.410;8.446;2023-04-06T10:42:14;5.87;;;5.20;;
9142;SDS011;54072;47.410;8.446;2023-04-06T10:44:43;6.57;;;4.93;;
9142;SDS011;54072;47.410;8.446;2023-04-06T10:47:17;6.60;;;4.70;;
9142;SDS011;54072;47.410;8.446;2023-04-06T10:49:45;7.07;;;5.53;;
9142;SDS011;54072;47.410;8.446;2023-04-06T10:52:13;5.73;;;4.93;;
9142;SDS011;54072;47.410;8.446;2023-04-06T10:54:41;6.10;;;5.23;;
9142;SDS011;54072;47.410;8.446;2023-04-06T10:57:10;5.47;;;4.90;;
9142;SDS011;54072;47.410;8.446;2023-04-06T10:59:41;6.77;;;5.23;;
9142;SDS011;54072;47.410;8.446;2023-04-06T11:02:19;5.70;;;5.03;;
9142;SDS011;54072;47.410;8.446;2023-04-06T11:04:55;6.88;;;5.47;;
9142;SDS011;54072;47.410;8.446;2023-04-06T11:07:23;5.68;;;5.00;;
9142;SDS011;54072;47.410;8.446;2023-04-06T11:09:52;8.00;;;6.10;;
9142;SDS011;54072;47.410;8.446;2023-04-06T11:12:29;5.75;;;5.15;;
9142;SDS011;54072;47.410;8.446;2023-04-06T11:14:58;5.95;;;5.25;;
9142;SDS011;54072;47.410;8.446;2023-04-06T11:17:31;10.02;;;5.63;;
9142;SDS011;54072;47.410;8.446;2023-04-06T11:20:00;5.80;;;5.20;;
9142;SDS011;54072;47.410;8.446;2023-04-06T11:22:28;6.07;;;5.23;;
9142;SDS011;54072;47.410;8.446;2023-04-06T11:25:04;6.00;;;5.07;;
9142;SDS011;54072;47.410;8.446;2023-04-06T11:27:33;6.97;;;5.30;;
9142;SDS011;54072;47.410;8.446;2023-04-06T11:30:01;8.97;;;5.40;;
9142;SDS011;54072;47.410;8.446;2023-04-06T11:32:29;5.50;;;4.90;;
9142;SDS011;54072;47.410;8.446;2023-04-06T11:34:58;7.03;;;5.13;;
9142;SDS011;54072;47.410;8.446;2023-04-06T11:37:26;5.63;;;5.13;;
9142;SDS011;54072;47.410;8.446;2023-04-06T11:39:54;5.97;;;5.00;;
9142;SDS011;54072;47.410;8.446;2023-04-06T11:42:23;5.50;;;4.90;;
9142;SDS011;54072;47.410;8.446;2023-04-06T11:44:51;5.67;;;5.00;;
9142;SDS011;54072;47.410;8.446;2023-04-06T11:47:26;5.30;;;4.80;;
9142;SDS011;54072;47.410;8.446;2023-04-06T11:49:55;6.27;;;4.37;;
9142;SDS011;54072;47.410;8.446;2023-04-06T11:52:27;5.13;;;4.60;;
9142;SDS011;54072;47.410;8.446;2023-04-06T11:54:55;5.47;;;4.77;;
9142;SDS011;54072;47.410;8.446;2023-04-06T11:57:23;5.22;;;4.43;;
9142;SDS011;54072;47.410;8.446;2023-04-06T11:59:51;5.17;;;4.53;;
9142;SDS011;54072;47.410;8.446;2023-04-06T12:02:19;5.20;;;4.70;;
9142;SDS011;54072;47.410;8.446;2023-04-06T12:04:47;5.70;;;4.93;;
9142;SDS011;54072;47.410;8.446;2023-04-06T12:07:15;5.87;;;4.60;;
9142;SDS011;54072;47.410;8.446;2023-04-06T12:09:44;4.77;;;4.20;;
9142;SDS011;54072;47.410;8.446;2023-04-06T12:12:11;5.13;;;4.63;;
9142;SDS011;54072;47.410;8.446;2023-04-06T12:14:39;5.73;;;5.00;;
9142;SDS011;54072;47.410;8.446;2023-04-06T12:17:07;6.35;;;4.63;;
9142;SDS011;54072;47.410;8.446;2023-04-06T12:19:35;5.93;;;4.28;;
9142;SDS011;54072;47.410;8.446;2023-04-06T12:22:02;5.38;;;4.28;;
9142;SDS011;54072;47.410;8.446;2023-04-06T12:24:30;5.80;;;4.75;;
9142;SDS011;54072;47.410;8.446;2023-04-06T12:26:59;4.88;;;4.30;;
9142;SDS011;54072;47.410;8.446;2023-04-06T12:29:32;10.50;;;4.90;;
9142;SDS011;54072;47.410;8.446;2023-04-06T12:31:59;6.30;;;4.60;;
9142;SDS011;54072;47.410;8.446;2023-04-06T12:34:28;6.25;;;5.65;;
9142;SDS011;54072;47.410;8.446;2023-04-06T12:36:56;9.82;;;5.82;;
9142;SDS011;54072;47.410;8.446;2023-04-06T12:39:24;6.90;;;5.00;;
9142;SDS011;54072;47.410;8.446;2023-04-06T12:41:52;5.95;;;4.20;;
9142;SDS011;54072;47.410;8.446;2023-04-06T12:44:22;5.07;;;4.57;;
9142;SDS011;54072;47.410;8.446;2023-04-06T12:46:51;6.28;;;4.20;;
9142;SDS011;54072;47.410;8.446;2023-04-06T12:49:19;6.82;;;5.10;;
9142;SDS011;54072;47.410;8.446;2023-04-06T12:51:48;6.00;;;5.40;;
9142;SDS011;54072;47.410;8.446;2023-04-06T12:54:16;5.78;;;4.50;;
9142;SDS011;54072;47.410;8.446;2023-04-06T12:56:44;8.32;;;4.70;;
9142;SDS011;54072;47.410;8.446;2023-04-06T12:59:11;6.70;;;4.40;;
9142;SDS011;54072;47.410;8.446;2023-04-06T13:01:40;8.48;;;4.80;;
9142;SDS011;54072;47.410;8.446;2023-04-06T13:04:10;5.32;;;4.78;;
9142;SDS011;54072;47.410;8.446;2023-04-06T13:06:37;5.95;;;4.80;;
9142;SDS011;54072;47.410;8.446;2023-04-06T13:09:05;5.28;;;4.78;;
9142;SDS011;54072;47.410;8.446;2023-04-06T13:11:34;5.30;;;4.78;;
9142;SDS011;54072;47.410;8.446;2023-04-06T13:14:01;6.13;;;4.93;;
9142;SDS011;54072;47.410;8.446;2023-04-06T13:16:30;5.43;;;4.93;;
9142;SDS011;54072;47.410;8.446;2023-04-06T13:18:59;6.30;;;4.80;;
9142;SDS011;54072;47.410;8.446;2023-04-06T13:21:27;6.68;;;5.45;;
9142;SDS011;54072;47.410;8.446;2023-04-06T13:23:56;6.40;;;5.05;;
9142;SDS011;54072;47.410;8.446;2023-04-06T13:26:24;5.90;;;4.80;;
9142;SDS011;54072;47.410;8.446;2023-04-06T13:28:52;7.00;;;4.82;;
9142;SDS011;54072;47.410;8.446;2023-04-06T13:31:19;4.75;;;4.30;;
9142;SDS011;54072;47.410;8.446;2023-04-06T13:33:47;5.20;;;4.70;;
9142;SDS011;54072;47.410;8.446;2023-04-06T13:36:16;5.67;;;5.00;;
9142;SDS011;54072;47.410;8.446;2023-04-06T13:38:44;7.63;;;4.90;;
9142;SDS011;54072;47.410;8.446;2023-04-06T13:41:17;6.20;;;4.53;;
9142;SDS011;54072;47.410;8.446;2023-04-06T13:43:47;5.30;;;4.70;;
9142;SDS011;54072;47.410;8.446;2023-04-06T13:46:15;5.13;;;4.67;;
9142;SDS011;54072;47.410;8.446;2023-04-06T13:48:42;5.07;;;4.33;;
9142;SDS011;54072;47.410;8.446;2023-04-06T13:51:10;5.07;;;4.57;;
9142;SDS011;54072;47.410;8.446;2023-04-06T13:53:40;5.53;;;4.93;;
9142;SDS011;54072;47.410;8.446;2023-04-06T13:56:08;5.43;;;4.50;;
9142;SDS011;54072;47.410;8.446;2023-04-06T13:58:36;5.10;;;4.60;;
9142;SDS011;54072;47.410;8.446;2023-04-06T14:01:04;7.23;;;4.73;;
9142;SDS011;54072;47.410;8.446;2023-04-06T14:03:32;5.10;;;4.60;;
9142;SDS011;54072;47.410;8.446;2023-04-06T14:06:00;5.37;;;4.40;;
9142;SDS011;54072;47.410;8.446;2023-04-06T14:08:30;4.90;;;4.23;;
9142;SDS011;54072;47.410;8.446;2023-04-06T14:10:59;4.90;;;4.50;;
9142;SDS011;54072;47.410;8.446;2023-04-06T14:13:26;6.10;;;4.80;;
9142;SDS011;54072;47.410;8.446;2023-04-06T14:15:54;5.50;;;5.00;;
9142;SDS011;54072;47.410;8.446;2023-04-06T14:18:23;5.43;;;4.93;;
9142;SDS011;54072;47.410;8.446;2023-04-06T14:20:54;6.07;;;5.00;;
9142;SDS011;54072;47.410;8.446;2023-04-06T14:23:22;5.80;;;4.67;;
9142;SDS011;54072;47.410;8.446;2023-04-06T14:25:52;5.33;;;4.87;;
9142;SDS011;54072;47.410;8.446;2023-04-06T14:28:24;5.53;;;4.90;;
9142;SDS011;54072;47.410;8.446;2023-04-06T14:30:53;5.83;;;5.23;;
9142;SDS011;54072;47.410;8.446;2023-04-06T14:33:21;6.37;;;4.87;;
9142;SDS011;54072;47.410;8.446;2023-04-06T14:35:48;5.40;;;4.90;;
9142;SDS011;54072;47.410;8.446;2023-04-06T14:38:16;6.80;;;4.60;;
9142;SDS011;54072;47.410;8.446;2023-04-06T14:40:44;6.60;;;5.37;;
9142;SDS011;54072;47.410;8.446;2023-04-06T14:43:12;5.37;;;4.87;;
9142;SDS011;54072;47.410;8.446;2023-04-06T14:45:41;5.13;;;4.63;;
9142;SDS011;54072;47.410;8.446;2023-04-06T14:48:09;5.90;;;5.30;;
9142;SDS011;54072;47.410;8.446;2023-04-06T14:50:38;5.43;;;4.90;;
9142;SDS011;54072;47.410;8.446;2023-04-06T14:53:06;5.50;;;4.90;;
9142;SDS011;54072;47.410;8.446;2023-04-06T14:55:38;5.57;;;4.97;;
9142;SDS011;54072;47.410;8.446;2023-04-06T14:58:06;5.57;;;4.10;;
9142;SDS011;54072;47.410;8.446;2023-04-06T15:00:34;5.95;;;5.35;;
9142;SDS011;54072;47.410;8.446;2023-04-06T15:03:03;6.83;;;5.20;;
9142;SDS011;54072;47.410;8.446;2023-04-06T15:05:33;5.60;;;4.97;;
9142;SDS011;54072;47.410;8.446;2023-04-06T15:08:01;5.97;;;4.50;;